Acme, PA (15610)

12:49 PM EST on February 08, 2016 (GMT -0500)
Bear Rocks | | Change Station
CLOSE
Current Station
Personal Weather Station
Location: Acme, PA
Elevation: 1732 ft
Nearby Weather Stations
Active Advisory: Winter Weather Advisory

Elev 1732 ft 40.12 °N, 79.47 °W | Updated 9 minutes ago

Overcast
Overcast
46.0 °F
Feels Like 45 °F
N
3.2
Wind Variable Wind from ESE

Today
High -- | Low -- °F
--% Chance of Precip.
Yesterday
High -- | Low -- °F
Precip. -- in
Pressure 29.64 in
Visibility 10.0 miles
Clouds Few 4200 ft
Scattered Clouds 7000 ft
Mostly Cloudy 9000 ft
Windchill 45 °F
Dew Point 28 °F
Humidity 49%
Rainfall 0.00 in
Snow Depth Not available.
7:19 AM 5:44 PM
New Moon, 0% visible
METAR KLBE 081645Z 16003KT 10SM FEW042 SCT070 BKN090 05/M04 A2964
Pressure 29.64 in
Visibility 10.0 miles
Clouds Few 4200 ft
Scattered Clouds 7000 ft
Mostly Cloudy 9000 ft
Windchill 45 °F
Dew Point 28 °F
Humidity 49%
Rainfall 0.00 in
Snow Depth Not available.
7:19 AM 5:44 PM
New Moon, 0% visible
METAR KLBE 081645Z 16003KT 10SM FEW042 SCT070 BKN090 05/M04 A2964

10-Day Weather Forecast

Almanac

Astronomy

Feb. 08, 2016 Rise Set
Actual Time
Civil Twilight
Nautical Twilight
Astronomical Twilight
Moon
Length of Visible Light
Length of Day
Tomorrow will be .
, % of the Moon is Illuminated

Today's Extremes

State Highs State Lows

Community

WunderPhotos

Upload Photos

1,891,476 photos uploaded!

WunderBlog® & News

Nearby

Air Quality

  Air Quality AQ Index Pollutant
Not available.

Snow Depth

Station Depth Elevation

Earthquake Activity

City Distance Mag. Time & Date
Minimum magnitude displayed is 2.5.

Coastal Water Temperatures

Place Temperature

Stations

Nearby Weather Stations

Station Location Temp. Windchill Dew Point Humidity Wind Precip. Elev Updated Type
                   

Watches & Warnings

Winter Weather Advisory
Issued: 9:45 AM EST Feb. 8, 2016 – National Weather Service

... Winter Weather Advisory remains in effect from 7 PM this
evening to 7 PM EST Wednesday...

* snow accumulation... 2 to 4 inches through early Tuesday... with
an additional 2 to 4 inches then expected through Wednesday
morning.

* Snow beginning... Monday afternoon.

* Period of most intense snow... Monday night through Tuesday
morning.

* Snow ending... snow will continue into Wednesday before
gradually tapering down thereafter.

* Impacts... hazardous travel conditions are expected due to snow.

Precautionary/preparedness actions...

A Winter Weather Advisory for snow means that periods of snow
will cause primarily travel difficulties. Be prepared for snow
covered roads and limited visibilities... and use caution while
driving.